Time;durP1;ratioP1;P1;durP2;ratioP2;P2;SDS_P1;SDS_P2;PMS_P1;PMS_P2;Temp;Humidity;BMP_temperature;BMP_pressure;BME280_temperature;BME280_humidity;BME280_pressure;Samples;Min_cycle;Max_cycle;Signal;HPM_P1;HPM_P2
2022/11/04 00:04:06;;;;;;;1.52;0.82;;;;;;;;;;10472267;28;20041;-81
2022/11/04 00:09:11;;;;;;;0.43;0.40;;;;;;;;;;10460711;28;20076;-81
2022/11/04 00:14:16;;;;;;;0.63;0.60;;;;;;;;;;10474608;28;20333;-79
2022/11/04 00:19:20;;;;;;;0.60;0.55;;;;;;;;;;10478242;28;20048;-79
2022/11/04 00:29:48;;;;;;;0.95;0.65;;;;;;;;;;10473124;28;20052;-79
2022/11/04 00:34:51;;;;;;;0.52;0.50;;;;;;;;;;10473960;28;20072;-81
2022/11/04 00:39:54;;;;;;;1.15;0.50;;;;;;;;;;10474157;28;20056;-80
2022/11/04 00:44:59;;;;;;;0.73;0.50;;;;;;;;;;10479033;28;20052;-79
2022/11/04 00:50:02;;;;;;;1.30;0.60;;;;;;;;;;10473892;28;20076;-80
2022/11/04 00:55:07;;;;;;;0.77;0.50;;;;;;;;;;10464155;28;20041;-81
2022/11/04 01:00:13;;;;;;;0.80;0.55;;;;;;;;;;10475853;28;20045;-80
2022/11/04 01:05:17;;;;;;;1.55;0.70;;;;;;;;;;10469013;28;20055;-79
2022/11/04 01:10:20;;;;;;;0.50;0.45;;;;;;;;;;10472501;28;20037;-80
2022/11/04 01:15:25;;;;;;;1.98;0.55;;;;;;;;;;10489601;28;20574;-78
2022/11/04 01:20:28;;;;;;;1.48;0.50;;;;;;;;;;10488774;28;20696;-82
2022/11/04 01:25:32;;;;;;;0.55;0.50;;;;;;;;;;10481970;28;20037;-79
2022/11/04 01:30:38;;;;;;;0.82;0.50;;;;;;;;;;10481136;28;20055;-82
2022/11/04 01:35:41;;;;;;;0.45;0.30;;;;;;;;;;10462305;28;20044;-79
2022/11/04 01:40:45;;;;;;;0.40;0.40;;;;;;;;;;10462987;28;20071;-80
2022/11/04 01:45:53;;;;;;;0.95;0.30;;;;;;;;;;10470757;28;20416;-81
2022/11/04 01:50:57;;;;;;;0.47;0.43;;;;;;;;;;10454083;28;20067;-80
2022/11/04 01:56:10;;;;;;;0.40;0.40;;;;;;;;;;10453255;28;20052;-78
2022/11/04 02:01:15;;;;;;;1.63;0.63;;;;;;;;;;10469405;28;20131;-81
2022/11/04 02:06:20;;;;;;;1.27;0.50;;;;;;;;;;10467257;28;20459;-79
2022/11/04 02:16:48;;;;;;;0.43;0.40;;;;;;;;;;10477742;28;20508;-79
2022/11/04 02:22:12;;;;;;;0.30;0.30;;;;;;;;;;10455178;28;20045;-80
2022/11/04 02:27:47;;;;;;;0.60;0.60;;;;;;;;;;10463279;28;20604;-81
2022/11/04 02:33:06;;;;;;;0.93;0.60;;;;;;;;;;10486927;28;20060;-81
2022/11/04 02:38:15;;;;;;;0.40;0.40;;;;;;;;;;10461372;28;20055;-80
2022/11/04 02:43:25;;;;;;;0.82;0.63;;;;;;;;;;10486413;28;20057;-80
2022/11/04 02:48:36;;;;;;;0.63;0.63;;;;;;;;;;10476464;28;20032;-80
2022/11/04 02:53:44;;;;;;;0.57;0.57;;;;;;;;;;10476490;28;20048;-80
2022/11/04 02:58:52;;;;;;;1.27;0.77;;;;;;;;;;10478070;28;20536;-81
2022/11/04 03:04:02;;;;;;;2.15;0.70;;;;;;;;;;10461440;28;20033;-81
2022/11/04 03:09:07;;;;;;;1.75;1.05;;;;;;;;;;10475970;28;20040;-80
2022/11/04 03:14:16;;;;;;;2.22;0.82;;;;;;;;;;10486664;28;20064;-80
2022/11/04 03:19:30;;;;;;;0.88;0.38;;;;;;;;;;10476394;28;20089;-79
2022/11/04 03:24:33;;;;;;;0.77;0.60;;;;;;;;;;10476356;28;20040;-79
2022/11/04 03:29:39;;;;;;;1.25;0.60;;;;;;;;;;10477706;28;20040;-79
2022/11/04 03:34:44;;;;;;;3.60;0.93;;;;;;;;;;10479565;28;20063;-78
2022/11/04 03:39:47;;;;;;;3.75;1.23;;;;;;;;;;10462486;28;20420;-82
2022/11/04 03:44:52;;;;;;;1.42;0.60;;;;;;;;;;10476671;28;20045;-79
2022/11/04 03:50:02;;;;;;;2.38;0.38;;;;;;;;;;10467958;28;20048;-80
2022/11/04 03:55:08;;;;;;;0.65;0.25;;;;;;;;;;10475323;28;20099;-82
2022/11/04 04:00:14;;;;;;;0.52;0.30;;;;;;;;;;10478623;28;20048;-79
2022/11/04 04:05:23;;;;;;;0.30;0.30;;;;;;;;;;10483020;28;20045;-82
2022/11/04 04:10:39;;;;;;;0.50;0.40;;;;;;;;;;10472576;28;20361;-80
2022/11/04 04:15:45;;;;;;;0.65;0.30;;;;;;;;;;10474112;28;20044;-78
2022/11/04 04:20:53;;;;;;;0.85;0.30;;;;;;;;;;10483633;28;20068;-80
2022/11/04 04:36:45;;;;;;;1.23;0.35;;;;;;;;;;10465740;28;20043;-78
2022/11/04 04:47:11;;;;;;;1.20;0.40;;;;;;;;;;10463293;28;20052;-79
2022/11/04 04:52:15;;;;;;;1.67;0.40;;;;;;;;;;10458749;28;20048;-80
2022/11/04 04:57:19;;;;;;;0.85;0.32;;;;;;;;;;10456203;28;20493;-80
2022/11/04 05:02:22;;;;;;;1.23;0.43;;;;;;;;;;10456132;28;20048;-79
2022/11/04 05:07:27;;;;;;;2.13;0.35;;;;;;;;;;10472618;28;20056;-80
2022/11/04 05:13:24;;;;;;;1.75;0.90;;;;;;;;;;10463173;28;20040;-79
2022/11/04 05:17:55;;;;;;;0.45;0.40;;;;;;;;;;10469119;28;20059;-80
2022/11/04 06:03:08;;;;;;;2.30;0.95;;;;;;;;;;10487151;27;20465;-85
2022/11/04 06:08:11;;;;;;;1.85;0.60;;;;;;;;;;10558762;23;20563;-85
2022/11/04 06:13:14;;;;;;;1.85;0.80;;;;;;;;;;10443591;28;20865;-85
2022/11/04 06:18:19;;;;;;;1.15;0.60;;;;;;;;;;10447798;28;20647;-87
2022/11/04 06:23:23;;;;;;;0.75;0.50;;;;;;;;;;10460566;28;20052;-86
2022/11/04 06:28:26;;;;;;;1.20;0.85;;;;;;;;;;10456859;28;20075;-84
2022/11/04 06:33:32;;;;;;;3.38;1.10;;;;;;;;;;10458771;28;20041;-84
2022/11/04 06:38:38;;;;;;;0.82;0.60;;;;;;;;;;10439817;28;20076;-83
2022/11/04 06:43:42;;;;;;;0.85;0.40;;;;;;;;;;10445462;28;20287;-84
2022/11/04 06:48:47;;;;;;;2.17;0.60;;;;;;;;;;10443756;28;20108;-84
2022/11/04 06:53:50;;;;;;;2.88;0.50;;;;;;;;;;10437379;28;20525;-85
2022/11/04 06:58:55;;;;;;;1.55;0.40;;;;;;;;;;10456932;28;20105;-85
2022/11/04 07:04:00;;;;;;;1.15;0.45;;;;;;;;;;10426253;28;20123;-84
2022/11/04 07:09:04;;;;;;;1.33;0.73;;;;;;;;;;10411026;28;20041;-85
2022/11/04 07:14:08;;;;;;;0.98;0.52;;;;;;;;;;10424412;28;20331;-84
2022/11/04 07:19:13;;;;;;;1.35;0.60;;;;;;;;;;10432923;28;20807;-86
2022/11/04 07:24:17;;;;;;;0.60;0.60;;;;;;;;;;10424902;28;20429;-83
2022/11/04 07:29:21;;;;;;;0.52;0.50;;;;;;;;;;10432387;28;20107;-84
2022/11/04 07:34:27;;;;;;;2.08;0.65;;;;;;;;;;10427776;28;20056;-83
2022/11/04 07:39:30;;;;;;;1.65;0.65;;;;;;;;;;10422583;28;20132;-83
2022/11/04 07:44:34;;;;;;;1.05;0.60;;;;;;;;;;10444389;28;20066;-84
2022/11/04 07:49:39;;;;;;;1.13;0.65;;;;;;;;;;10439287;28;20067;-84
2022/11/04 07:54:42;;;;;;;0.95;0.70;;;;;;;;;;10433115;28;20087;-83
2022/11/04 07:59:46;;;;;;;1.73;0.73;;;;;;;;;;10448710;28;20045;-83
2022/11/04 08:04:51;;;;;;;2.65;1.17;;;;;;;;;;10440917;28;20048;-83
2022/11/04 08:09:55;;;;;;;1.52;0.82;;;;;;;;;;10415841;28;20132;-83
2022/11/04 08:15:02;;;;;;;1.40;1.00;;;;;;;;;;10436385;28;20533;-83
2022/11/04 08:20:08;;;;;;;3.80;1.08;;;;;;;;;;10438344;28;20041;-87
2022/11/04 08:25:12;;;;;;;;;;;;;;;;;;10433698;28;20053;-83
2022/11/04 08:30:16;;;;;;;3.15;1.05;;;;;;;;;;10432354;28;19921;-83
2022/11/04 08:35:20;;;;;;;1.00;0.60;;;;;;;;;;10419090;28;20139;-83
2022/11/04 08:40:24;;;;;;;0.68;0.52;;;;;;;;;;10425988;28;20148;-82
2022/11/04 08:45:28;;;;;;;2.00;0.40;;;;;;;;;;10413785;28;20060;-82
2022/11/04 08:50:36;;;;;;;1.73;0.90;;;;;;;;;;10427205;28;20044;-82
2022/11/04 08:55:39;;;;;;;2.65;0.70;;;;;;;;;;10429222;28;20336;-82
2022/11/04 09:00:43;;;;;;;1.98;0.75;;;;;;;;;;10430561;28;20043;-82
2022/11/04 09:05:48;;;;;;;2.22;0.70;;;;;;;;;;10427479;28;20113;-83
2022/11/04 09:10:51;;;;;;;1.67;0.70;;;;;;;;;;10394666;28;20085;-82
2022/11/04 09:15:54;;;;;;;0.75;0.60;;;;;;;;;;10392119;28;20037;-84
2022/11/04 09:21:01;;;;;;;2.08;0.70;;;;;;;;;;10381460;28;20038;-83
2022/11/04 09:26:08;;;;;;;2.00;0.88;;;;;;;;;;10388512;28;20065;-83
2022/11/04 09:31:14;;;;;;;0.88;0.73;;;;;;;;;;10381782;28;20557;-88
2022/11/04 09:36:18;;;;;;;1.55;0.60;;;;;;;;;;10399050;28;20114;-89
2022/11/04 09:41:37;;;;;;;0.52;0.47;;;;;;;;;;10398856;28;20045;-87
2022/11/04 09:46:44;;;;;;;4.35;1.10;;;;;;;;;;10408704;28;20243;-87
2022/11/04 09:51:50;;;;;;;2.50;1.02;;;;;;;;;;10418216;28;20039;-88
2022/11/04 09:56:59;;;;;;;1.02;0.55;;;;;;;;;;10390992;28;20457;-87
2022/11/04 10:02:34;;;;;;;1.77;1.10;;;;;;;;;;10397717;28;20829;-87
2022/11/04 10:08:01;;;;;;;2.85;0.93;;;;;;;;;;10397228;28;20665;-87
2022/11/04 10:13:20;;;;;;;2.38;0.75;;;;;;;;;;10380221;28;20050;-86
2022/11/04 10:18:39;;;;;;;1.35;0.75;;;;;;;;;;10394394;28;20045;-87
2022/11/04 10:23:45;;;;;;;1.80;0.60;;;;;;;;;;10388373;28;20048;-86
2022/11/04 10:28:52;;;;;;;;;;;;;;;;;;10393055;28;20059;-85
2022/11/04 10:33:59;;;;;;;0.90;0.70;;;;;;;;;;10394846;28;20468;-87
2022/11/04 10:39:12;;;;;;;0.80;0.60;;;;;;;;;;10399778;28;20056;-87
2022/11/04 10:44:22;;;;;;;3.85;0.80;;;;;;;;;;10398932;28;20049;-86
2022/11/04 10:49:43;;;;;;;2.78;1.02;;;;;;;;;;10388423;28;20075;-85
2022/11/04 10:55:01;;;;;;;1.08;0.73;;;;;;;;;;10377856;28;20178;-85
2022/11/04 11:00:06;;;;;;;0.93;0.60;;;;;;;;;;10382222;28;20052;-84
2022/11/04 11:05:20;;;;;;;2.72;0.82;;;;;;;;;;10384653;28;20045;-85
2022/11/04 11:10:27;;;;;;;1.45;0.50;;;;;;;;;;10383823;28;20034;-85
2022/11/04 11:15:34;;;;;;;1.85;0.50;;;;;;;;;;10391432;28;20042;-86
2022/11/04 11:26:00;;;;;;;2.42;0.93;;;;;;;;;;10479700;28;20048;-81
2022/11/04 11:31:11;;;;;;;1.98;0.60;;;;;;;;;;10513394;28;20039;-81
2022/11/04 11:36:19;;;;;;;1.30;0.47;;;;;;;;;;10513705;28;20050;-81
2022/11/04 11:41:55;;;;;;;1.70;0.50;;;;;;;;;;10521132;28;20060;-81
2022/11/04 11:47:01;;;;;;;2.25;0.52;;;;;;;;;;10515570;28;20222;-82
2022/11/04 11:52:32;;;;;;;2.60;1.00;;;;;;;;;;10515200;28;20127;-82
2022/11/04 11:57:48;;;;;;;1.75;0.50;;;;;;;;;;10521691;28;20063;-81
2022/11/04 12:03:17;;;;;;;3.15;0.60;;;;;;;;;;10516182;28;20104;-82
2022/11/04 12:08:41;;;;;;;1.55;0.57;;;;;;;;;;10523854;28;20043;-82
2022/11/04 12:14:11;;;;;;;1.33;0.50;;;;;;;;;;10509479;28;20044;-82
2022/11/04 12:19:30;;;;;;;0.60;0.50;;;;;;;;;;10483633;28;20063;-82
2022/11/04 12:24:44;;;;;;;0.50;0.50;;;;;;;;;;10512173;28;20098;-83
2022/11/04 12:30:03;;;;;;;0.90;0.57;;;;;;;;;;10511590;28;20104;-81
2022/11/04 12:35:21;;;;;;;1.80;0.50;;;;;;;;;;10482894;28;20071;-82
2022/11/04 12:40:29;;;;;;;0.95;0.40;;;;;;;;;;10510054;28;20051;-81
2022/11/04 12:45:44;;;;;;;0.52;0.50;;;;;;;;;;10518394;28;20127;-81
2022/11/04 12:50:56;;;;;;;1.02;0.40;;;;;;;;;;10505418;28;20051;-82
2022/11/04 12:56:06;;;;;;;0.85;0.60;;;;;;;;;;10520835;28;20499;-81
2022/11/04 13:01:16;;;;;;;2.50;0.50;;;;;;;;;;10469953;28;20124;-82
2022/11/04 13:06:24;;;;;;;1.90;0.65;;;;;;;;;;10510311;28;20447;-82
2022/11/04 13:11:32;;;;;;;0.90;0.40;;;;;;;;;;10512935;28;20036;-82
2022/11/04 13:16:40;;;;;;;0.73;0.30;;;;;;;;;;10512153;28;20214;-81
2022/11/04 13:21:43;;;;;;;0.60;0.50;;;;;;;;;;10513226;28;20412;-81
2022/11/04 13:26:47;;;;;;;3.17;1.00;;;;;;;;;;10505365;28;20415;-81
2022/11/04 13:31:56;;;;;;;1.80;1.02;;;;;;;;;;10524206;28;20047;-81
2022/11/04 13:37:10;;;;;;;1.55;0.40;;;;;;;;;;10497732;28;20044;-81
2022/11/04 13:42:41;;;;;;;1.77;0.88;;;;;;;;;;10496673;28;20040;-83
2022/11/04 13:47:51;;;;;;;2.30;0.50;;;;;;;;;;10511127;28;20046;-81
2022/11/04 13:52:54;;;;;;;1.23;0.40;;;;;;;;;;10495482;28;20048;-82
2022/11/04 13:58:01;;;;;;;0.80;0.45;;;;;;;;;;10510288;28;20048;-82
2022/11/04 14:03:51;;;;;;;0.55;0.38;;;;;;;;;;10508468;28;20048;-81
2022/11/04 14:09:32;;;;;;;1.20;0.40;;;;;;;;;;10524041;28;20565;-82
2022/11/04 14:14:35;;;;;;;1.08;0.40;;;;;;;;;;10528904;28;20071;-82
2022/11/04 14:19:59;;;;;;;0.93;0.40;;;;;;;;;;10514726;28;20157;-83
2022/11/04 14:25:19;;;;;;;0.60;0.50;;;;;;;;;;10512920;28;20113;-83
2022/11/04 14:30:41;;;;;;;2.05;0.60;;;;;;;;;;10526098;28;20505;-82
2022/11/04 14:35:46;;;;;;;0.60;0.35;;;;;;;;;;10510223;28;20040;-82
2022/11/04 14:40:52;;;;;;;0.63;0.40;;;;;;;;;;10518067;28;20535;-82
2022/11/04 14:45:57;;;;;;;1.83;0.60;;;;;;;;;;10498169;28;20044;-82
2022/11/04 14:51:04;;;;;;;2.17;0.57;;;;;;;;;;10526017;28;20048;-82
2022/11/04 14:56:15;;;;;;;0.95;0.40;;;;;;;;;;10502921;28;20050;-82
2022/11/04 15:01:21;;;;;;;0.80;0.40;;;;;;;;;;10520608;28;20049;-82
2022/11/04 15:06:28;;;;;;;0.75;0.50;;;;;;;;;;10505958;28;20126;-82
2022/11/04 15:17:01;;;;;;;1.13;0.75;;;;;;;;;;10519576;28;20449;-82
2022/11/04 15:22:07;;;;;;;1.42;0.80;;;;;;;;;;10509935;28;20040;-82
2022/11/04 15:27:14;;;;;;;1.37;0.50;;;;;;;;;;10521971;28;20044;-82
2022/11/04 15:32:18;;;;;;;1.13;0.60;;;;;;;;;;10520108;28;20033;-82
2022/11/04 15:37:25;;;;;;;0.95;0.47;;;;;;;;;;10508919;28;20074;-83
2022/11/04 15:47:47;;;;;;;1.40;0.70;;;;;;;;;;10511117;28;20449;-82
2022/11/04 15:52:55;;;;;;;1.45;0.93;;;;;;;;;;10519042;28;20062;-83
2022/11/04 15:57:58;;;;;;;1.35;0.82;;;;;;;;;;10504433;28;20531;-82
2022/11/04 16:03:02;;;;;;;1.67;0.90;;;;;;;;;;10507933;28;20045;-82
2022/11/04 16:08:21;;;;;;;2.47;1.17;;;;;;;;;;10518655;28;20138;-81
2022/11/04 16:13:25;;;;;;;4.10;1.95;;;;;;;;;;10512405;28;20087;-82
2022/11/04 16:18:34;;;;;;;2.00;1.60;;;;;;;;;;10510688;28;20040;-82
2022/11/04 16:23:45;;;;;;;1.63;1.10;;;;;;;;;;10517756;28;20513;-83
2022/11/04 16:28:54;;;;;;;6.25;3.55;;;;;;;;;;10526123;28;20131;-82
2022/11/04 16:33:57;;;;;;;4.63;3.22;;;;;;;;;;10495096;28;20048;-82
2022/11/04 16:39:06;;;;;;;2.92;2.28;;;;;;;;;;10518243;28;20664;-82
2022/11/04 16:44:22;;;;;;;1.48;1.33;;;;;;;;;;10518836;28;20461;-82
2022/11/04 16:49:25;;;;;;;2.23;1.10;;;;;;;;;;10514020;28;20134;-82
2022/11/04 16:54:30;;;;;;;1.35;1.02;;;;;;;;;;10516032;28;20032;-82
2022/11/04 16:59:34;;;;;;;3.17;1.60;;;;;;;;;;10509715;28;20056;-82
2022/11/04 17:04:37;;;;;;;3.38;1.92;;;;;;;;;;10507794;28;20127;-82
2022/11/04 17:09:42;;;;;;;3.25;2.10;;;;;;;;;;10514254;28;20063;-82
2022/11/04 17:14:45;;;;;;;2.75;1.92;;;;;;;;;;10490168;28;20040;-82
2022/11/04 17:19:49;;;;;;;4.05;2.30;;;;;;;;;;10510947;28;20404;-82
2022/11/04 17:24:53;;;;;;;3.15;2.50;;;;;;;;;;10523451;28;20131;-82
2022/11/04 17:29:57;;;;;;;2.83;1.60;;;;;;;;;;10522159;28;20048;-82
2022/11/04 17:35:00;;;;;;;3.53;2.33;;;;;;;;;;10520654;28;20121;-83
2022/11/04 17:40:07;;;;;;;7.22;3.72;;;;;;;;;;10514267;28;20048;-82
2022/11/04 17:45:11;;;;;;;9.00;5.13;;;;;;;;;;10522184;28;20124;-82
2022/11/04 17:50:14;;;;;;;3.95;2.75;;;;;;;;;;10510526;28;20055;-83
2022/11/04 17:55:19;;;;;;;3.63;2.78;;;;;;;;;;10524386;28;20064;-82
2022/11/04 18:00:28;;;;;;;3.35;1.90;;;;;;;;;;10521285;28;20325;-82
2022/11/04 18:05:31;;;;;;;2.25;1.33;;;;;;;;;;10517877;28;20120;-82
2022/11/04 18:10:36;;;;;;;1.92;1.48;;;;;;;;;;10501494;28;20067;-82
2022/11/04 18:15:40;;;;;;;2.40;1.50;;;;;;;;;;10495855;28;20033;-82
2022/11/04 18:20:43;;;;;;;2.05;1.42;;;;;;;;;;10518442;28;20125;-82
2022/11/04 18:25:48;;;;;;;1.90;1.40;;;;;;;;;;10518940;28;20046;-82
2022/11/04 18:30:52;;;;;;;1.92;1.20;;;;;;;;;;10521193;28;20140;-82
2022/11/04 18:35:56;;;;;;;2.97;1.50;;;;;;;;;;10520094;28;20551;-82
2022/11/04 18:41:01;;;;;;;2.30;1.50;;;;;;;;;;10504862;28;20066;-83
2022/11/04 18:46:08;;;;;;;2.55;1.67;;;;;;;;;;10507604;28;20098;-82
2022/11/04 18:51:13;;;;;;;2.80;2.30;;;;;;;;;;10503486;28;20075;-82
2022/11/04 18:56:19;;;;;;;2.60;1.65;;;;;;;;;;10513605;28;20085;-82
2022/11/04 19:01:25;;;;;;;1.65;1.55;;;;;;;;;;10524821;28;20408;-83
2022/11/04 19:06:30;;;;;;;1.45;1.35;;;;;;;;;;10525494;28;20068;-82
2022/11/04 19:11:37;;;;;;;2.22;1.35;;;;;;;;;;10528404;28;20048;-82
2022/11/04 19:16:41;;;;;;;2.10;1.40;;;;;;;;;;10524801;28;20048;-81
2022/11/04 19:21:46;;;;;;;2.65;1.42;;;;;;;;;;10518868;28;20457;-82
2022/11/04 19:26:50;;;;;;;2.25;1.60;;;;;;;;;;10511223;28;20044;-83
2022/11/04 19:31:54;;;;;;;2.20;1.45;;;;;;;;;;10503223;28;20045;-82
2022/11/04 19:36:57;;;;;;;2.40;1.65;;;;;;;;;;10509534;28;20589;-82
2022/11/04 19:47:23;;;;;;;3.08;2.20;;;;;;;;;;10517406;28;20044;-83
2022/11/04 19:52:27;;;;;;;2.75;2.22;;;;;;;;;;10522180;28;20041;-82
2022/11/04 19:57:32;;;;;;;2.08;1.67;;;;;;;;;;10515269;28;20497;-82
2022/11/04 20:02:36;;;;;;;3.15;2.00;;;;;;;;;;10537330;28;20055;-82
2022/11/04 20:07:52;;;;;;;3.30;2.08;;;;;;;;;;10545459;28;20623;-83
2022/11/04 20:18:20;;;;;;;5.32;3.70;;;;;;;;;;10523115;28;20073;-82
2022/11/04 20:23:23;;;;;;;3.28;2.45;;;;;;;;;;10519776;28;20044;-82
2022/11/04 20:28:28;;;;;;;2.47;1.23;;;;;;;;;;10519921;28;20036;-82
2022/11/04 20:33:32;;;;;;;1.75;1.30;;;;;;;;;;10515884;28;20082;-82
2022/11/04 20:38:36;;;;;;;1.27;1.17;;;;;;;;;;10523408;28;20105;-82
2022/11/04 20:43:41;;;;;;;1.67;1.30;;;;;;;;;;10515044;28;20074;-83
2022/11/04 20:48:45;;;;;;;3.10;2.15;;;;;;;;;;10504409;28;20085;-82
2022/11/04 20:53:54;;;;;;;2.22;1.60;;;;;;;;;;10518939;28;20067;-82
2022/11/04 20:59:00;;;;;;;1.67;1.48;;;;;;;;;;10500619;28;20047;-82
2022/11/04 21:04:05;;;;;;;1.38;1.20;;;;;;;;;;10507512;28;20064;-82
2022/11/04 21:09:11;;;;;;;2.17;1.60;;;;;;;;;;10508654;28;20055;-82
2022/11/04 21:14:18;;;;;;;3.27;1.20;;;;;;;;;;10520441;28;20068;-81
2022/11/04 21:19:22;;;;;;;2.08;1.25;;;;;;;;;;10503849;28;20035;-81
2022/11/04 21:24:26;;;;;;;1.48;1.00;;;;;;;;;;10512983;28;20123;-82
2022/11/04 21:29:31;;;;;;;1.20;1.10;;;;;;;;;;10507876;28;20055;-82
2022/11/04 21:34:34;;;;;;;4.70;2.65;;;;;;;;;;10523746;28;20124;-81
2022/11/04 21:39:38;;;;;;;5.68;3.38;;;;;;;;;;10522407;28;20036;-82
2022/11/04 21:44:43;;;;;;;3.47;2.35;;;;;;;;;;10495676;28;20076;-81
2022/11/04 21:49:46;;;;;;;2.92;2.00;;;;;;;;;;10508917;28;20588;-82
2022/11/04 21:54:50;;;;;;;3.22;2.22;;;;;;;;;;10521010;28;20090;-82
2022/11/04 21:59:54;;;;;;;2.80;1.60;;;;;;;;;;10506217;28;20532;-84
2022/11/04 22:04:58;;;;;;;2.38;1.50;;;;;;;;;;10512263;28;20126;-82
2022/11/04 22:10:01;;;;;;;1.30;1.20;;;;;;;;;;10523166;28;20100;-83
2022/11/04 22:15:07;;;;;;;1.60;1.20;;;;;;;;;;10514050;28;20044;-83
2022/11/04 22:20:11;;;;;;;1.92;1.20;;;;;;;;;;10509267;28;20154;-82
2022/11/04 22:25:15;;;;;;;2.60;1.73;;;;;;;;;;10511539;28;20062;-82
2022/11/04 22:30:20;;;;;;;3.10;1.63;;;;;;;;;;10499865;28;20040;-82
2022/11/04 22:35:23;;;;;;;3.35;1.50;;;;;;;;;;10523345;28;20062;-83
2022/11/04 22:40:27;;;;;;;1.52;1.40;;;;;;;;;;10520897;28;20049;-82
2022/11/04 22:45:32;;;;;;;4.60;2.13;;;;;;;;;;10514282;28;20047;-82
2022/11/04 22:50:35;;;;;;;2.65;1.60;;;;;;;;;;10490704;28;20131;-83
2022/11/04 22:55:39;;;;;;;2.90;1.88;;;;;;;;;;10535346;28;20138;-84
2022/11/04 23:00:44;;;;;;;1.90;1.65;;;;;;;;;;10526796;28;20044;-82
2022/11/04 23:05:47;;;;;;;2.28;1.60;;;;;;;;;;10526172;28;20457;-82
2022/11/04 23:27:00;;;;;;;4.43;2.08;;;;;;;;;;10503661;28;20202;-82
2022/11/04 23:32:05;;;;;;;2.72;2.22;;;;;;;;;;10525410;28;20428;-82
2022/11/04 23:37:12;;;;;;;4.13;2.00;;;;;;;;;;10525469;28;20131;-81
2022/11/04 23:42:17;;;;;;;3.72;2.10;;;;;;;;;;10516729;28;20452;-82
